createdAt,value
2023-03-28T00:00:38.833Z,0.30
2023-03-28T00:03:08.344Z,0.40
2023-03-28T00:05:42.058Z,0.50
2023-03-28T00:08:12.456Z,0.37
2023-03-28T00:10:41.678Z,0.37
2023-03-28T00:13:15.571Z,0.40
2023-03-28T00:15:45.483Z,0.30
2023-03-28T00:18:14.702Z,0.60
2023-03-28T00:20:45.337Z,0.30
2023-03-28T00:23:15.641Z,0.37
2023-03-28T00:25:45.527Z,0.20
2023-03-28T00:28:15.504Z,0.50
2023-03-28T00:30:44.809Z,0.50
2023-03-28T00:33:13.769Z,0.47
2023-03-28T00:35:43.322Z,0.50
2023-03-28T00:38:15.980Z,0.40
2023-03-28T00:40:48.378Z,0.50
2023-03-28T00:43:17.984Z,0.40
2023-03-28T00:46:02.488Z,0.40
2023-03-28T00:48:37.951Z,0.40
2023-03-28T00:51:08.755Z,0.20
2023-03-28T00:53:40.244Z,0.40
2023-03-28T00:56:12.470Z,0.30
2023-03-28T00:58:45.664Z,0.50
2023-03-28T01:01:17.194Z,0.40
2023-03-28T01:03:47.554Z,0.43
2023-03-28T01:06:17.441Z,0.30
2023-03-28T01:08:49.364Z,0.50
2023-03-28T01:11:19.730Z,0.50
2023-03-28T01:13:52.759Z,0.40
2023-03-28T01:16:23.323Z,0.50
2023-03-28T01:18:53.859Z,0.50
2023-03-28T01:21:32.411Z,0.60
2023-03-28T01:24:20.464Z,0.30
2023-03-28T01:26:55.592Z,0.60
2023-03-28T01:29:45.671Z,0.60
2023-03-28T01:32:29.889Z,0.40
2023-03-28T01:35:04.300Z,0.40
2023-03-28T01:37:42.099Z,0.40
2023-03-28T01:40:19.207Z,0.50
2023-03-28T01:42:54.599Z,0.50
2023-03-28T01:45:29.387Z,0.60
2023-03-28T01:48:05.182Z,0.47
2023-03-28T01:50:38.675Z,0.20
2023-03-28T01:53:12.966Z,0.27
2023-03-28T01:55:43.543Z,0.50
2023-03-28T01:58:16.869Z,0.60
2023-03-28T02:00:48.323Z,0.43
2023-03-28T02:03:22.113Z,0.60
2023-03-28T02:05:52.359Z,0.43
2023-03-28T02:08:24.548Z,0.70
2023-03-28T02:10:54.670Z,0.40
2023-03-28T02:13:26.154Z,0.60
2023-03-28T02:15:59.439Z,0.50
2023-03-28T02:18:31.225Z,0.40
2023-03-28T02:21:01.858Z,0.60
2023-03-28T02:23:33.647Z,0.50
2023-03-28T02:26:02.913Z,0.27
2023-03-28T02:28:33.338Z,0.40
2023-03-28T02:31:03.401Z,0.70
2023-03-28T02:33:38.220Z,0.40
2023-03-28T02:36:18.390Z,0.53
2023-03-28T02:38:55.200Z,0.40
2023-03-28T02:41:30.575Z,0.70
2023-03-28T02:44:06.919Z,0.47
2023-03-28T02:46:39.272Z,0.80
2023-03-28T02:49:22.438Z,0.50
2023-03-28T02:51:53.811Z,0.50
2023-03-28T02:54:30.144Z,0.50
2023-03-28T02:57:04.811Z,0.50
2023-03-28T02:59:36.704Z,0.80
2023-03-28T03:02:06.942Z,0.70
2023-03-28T03:04:36.904Z,0.73
2023-03-28T03:07:09.310Z,0.73
2023-03-28T03:09:45.733Z,0.63
2023-03-28T03:12:15.300Z,0.53
2023-03-28T03:14:45.226Z,0.50
2023-03-28T03:17:14.144Z,0.60
2023-03-28T03:19:43.791Z,0.60
2023-03-28T03:22:20.733Z,0.50
2023-03-28T03:24:53.956Z,0.70
2023-03-28T03:27:23.609Z,0.60
2023-03-28T03:29:53.502Z,0.47
2023-03-28T03:32:24.080Z,0.67
2023-03-28T03:34:53.317Z,0.70
2023-03-28T03:37:22.900Z,0.60
2023-03-28T03:39:53.575Z,0.40
2023-03-28T03:42:26.698Z,0.30
2023-03-28T03:44:56.303Z,0.50
2023-03-28T03:47:25.449Z,0.43
2023-03-28T03:49:54.679Z,0.60
2023-03-28T03:52:24.656Z,0.60
2023-03-28T03:54:55.577Z,0.50
2023-03-28T03:57:24.593Z,0.30
2023-03-28T03:59:54.059Z,0.50
2023-03-28T04:02:23.073Z,0.80
2023-03-28T04:04:54.198Z,0.60
2023-03-28T04:07:23.292Z,0.50
2023-03-28T04:09:53.581Z,0.73
2023-03-28T04:12:24.696Z,0.40
2023-03-28T04:14:55.363Z,0.67
2023-03-28T04:17:30.207Z,0.40
2023-03-28T04:20:00.001Z,0.40
2023-03-28T04:22:31.051Z,0.50
2023-03-28T04:25:02.020Z,0.40
2023-03-28T04:27:33.922Z,0.57
2023-03-28T04:30:03.062Z,0.60
2023-03-28T04:32:36.198Z,0.80
2023-03-28T04:35:06.963Z,0.63
2023-03-28T04:37:38.787Z,0.50
2023-03-28T04:40:10.740Z,0.50
2023-03-28T04:42:42.267Z,0.30
2023-03-28T04:45:12.049Z,0.50
2023-03-28T04:47:41.543Z,0.60
2023-03-28T04:50:13.745Z,0.63
2023-03-28T04:52:42.917Z,0.50
2023-03-28T04:55:12.723Z,0.50
2023-03-28T04:57:45.695Z,0.40
2023-03-28T05:00:17.761Z,0.57
2023-03-28T05:02:47.988Z,0.50
2023-03-28T05:05:18.708Z,0.70
2023-03-28T05:07:47.823Z,0.33
2023-03-28T05:10:17.291Z,0.60
2023-03-28T05:12:48.684Z,0.50
2023-03-28T05:15:21.255Z,0.53
2023-03-28T05:17:52.473Z,0.60
2023-03-28T05:20:23.025Z,0.40
2023-03-28T05:22:52.636Z,0.70
2023-03-28T05:25:22.483Z,0.70
2023-03-28T05:27:53.515Z,0.40
2023-03-28T05:30:22.629Z,0.70
2023-03-28T05:32:52.121Z,0.63
2023-03-28T05:35:21.856Z,0.67
2023-03-28T05:37:51.611Z,0.47
2023-03-28T05:40:20.801Z,0.60
2023-03-28T05:42:50.307Z,0.53
2023-03-28T05:45:20.824Z,0.50
2023-03-28T05:47:53.085Z,0.60
2023-03-28T05:50:23.083Z,0.57
2023-03-28T05:52:52.557Z,0.83
2023-03-28T05:55:21.841Z,0.87
2023-03-28T05:57:52.428Z,0.53
2023-03-28T06:00:24.426Z,0.80
2023-03-28T06:02:55.209Z,0.90
2023-03-28T06:05:26.552Z,0.87
2023-03-28T06:07:56.644Z,0.93
2023-03-28T06:10:26.651Z,1.10
2023-03-28T06:12:57.369Z,0.60
2023-03-28T06:15:28.288Z,0.90
2023-03-28T06:17:58.455Z,0.90
2023-03-28T06:20:29.416Z,0.77
2023-03-28T06:22:58.495Z,0.80
2023-03-28T06:25:29.682Z,0.77
2023-03-28T06:27:59.183Z,1.10
2023-03-28T06:30:30.079Z,0.57
2023-03-28T06:32:59.221Z,0.77
2023-03-28T06:35:29.255Z,0.90
2023-03-28T06:38:00.175Z,0.80
2023-03-28T06:40:29.795Z,0.80
2023-03-28T06:42:59.256Z,0.80
2023-03-28T06:45:29.796Z,0.70
2023-03-28T06:47:59.206Z,0.77
2023-03-28T06:50:28.450Z,0.80
2023-03-28T06:52:58.349Z,0.80
2023-03-28T06:55:28.113Z,0.70
2023-03-28T06:58:01.573Z,0.60
2023-03-28T07:00:32.633Z,0.80
2023-03-28T07:03:04.569Z,0.83
2023-03-28T07:05:34.284Z,0.70
2023-03-28T07:08:03.993Z,0.67
2023-03-28T07:10:33.417Z,0.50
2023-03-28T07:13:03.085Z,0.57
2023-03-28T07:15:34.352Z,0.60
2023-03-28T07:18:03.864Z,0.70
2023-03-28T07:20:34.071Z,0.57
2023-03-28T07:23:04.062Z,0.50
2023-03-28T07:25:33.447Z,0.60
2023-03-28T07:28:03.096Z,0.50
2023-03-28T07:30:34.162Z,0.73
2023-03-28T07:33:16.635Z,0.60
2023-03-28T07:35:47.940Z,0.70
2023-03-28T07:38:17.177Z,0.90
2023-03-28T07:40:46.494Z,1.03
2023-03-28T07:43:16.142Z,0.90
2023-03-28T07:45:48.025Z,0.60
2023-03-28T07:48:18.468Z,0.70
2023-03-28T07:50:48.044Z,0.83
2023-03-28T07:53:16.966Z,0.70
2023-03-28T07:55:55.042Z,0.40
2023-03-28T07:58:26.709Z,0.37
2023-03-28T08:00:59.551Z,0.40
2023-03-28T08:03:28.825Z,0.20
2023-03-28T08:05:59.556Z,0.50
2023-03-28T08:08:30.334Z,0.50
2023-03-28T08:10:59.700Z,0.30
2023-03-28T08:13:28.812Z,0.40
2023-03-28T08:15:59.857Z,0.40
2023-03-28T08:18:31.017Z,0.30
2023-03-28T08:21:02.943Z,0.40
2023-03-28T08:23:32.553Z,0.40
2023-03-28T08:26:05.281Z,0.30
2023-03-28T08:28:35.216Z,0.30
2023-03-28T08:31:14.549Z,0.40
2023-03-28T08:33:44.172Z,0.23
2023-03-28T08:36:15.387Z,0.40
2023-03-28T08:38:44.645Z,0.33
2023-03-28T08:41:22.095Z,0.50
2023-03-28T08:43:58.549Z,0.33
2023-03-28T08:46:30.717Z,0.13
2023-03-28T08:51:35.821Z,0.30
2023-03-28T08:54:08.662Z,0.20
2023-03-28T08:56:44.834Z,0.30
2023-03-28T08:59:17.073Z,0.30
2023-03-28T09:01:48.995Z,0.50
2023-03-28T09:04:23.109Z,0.17
2023-03-28T09:06:55.955Z,0.30
2023-03-28T09:09:30.076Z,0.50
2023-03-28T09:12:04.928Z,0.30
2023-03-28T09:14:50.107Z,0.27
2023-03-28T09:17:27.381Z,0.30
2023-03-28T09:20:14.792Z,0.20
2023-03-28T09:22:48.271Z,0.43
2023-03-28T09:25:27.710Z,0.10
2023-03-28T09:28:00.168Z,0.20
2023-03-28T09:30:35.704Z,0.27
2023-03-28T09:33:08.870Z,0.20
2023-03-28T09:35:41.000Z,0.10
2023-03-28T09:38:19.332Z,0.20
2023-03-28T09:40:52.981Z,0.30
2023-03-28T09:43:28.796Z,0.20
2023-03-28T09:46:03.178Z,0.30
2023-03-28T09:48:36.509Z,0.40
2023-03-28T09:51:09.230Z,0.33
2023-03-28T09:53:40.983Z,0.30
2023-03-28T09:56:13.617Z,0.40
2023-03-28T09:58:50.524Z,0.20
2023-03-28T10:01:28.376Z,0.33
2023-03-28T10:04:00.944Z,0.20
2023-03-28T10:06:30.743Z,0.10
2023-03-28T10:09:17.796Z,0.13
2023-03-28T10:11:48.989Z,0.40
2023-03-28T10:14:37.096Z,0.40
2023-03-28T10:17:08.275Z,0.20
2023-03-28T10:19:40.877Z,0.30
2023-03-28T10:22:13.738Z,0.27
2023-03-28T10:24:44.946Z,0.23
2023-03-28T10:27:19.477Z,0.23
2023-03-28T10:29:49.201Z,0.20
2023-03-28T10:32:27.005Z,0.40
2023-03-28T10:35:10.648Z,0.30
2023-03-28T10:37:39.742Z,0.20
2023-03-28T10:40:11.589Z,0.30
2023-03-28T10:42:43.942Z,0.20
2023-03-28T10:45:24.106Z,0.30
2023-03-28T10:47:56.328Z,0.20
2023-03-28T10:50:31.088Z,0.03
2023-03-28T10:53:10.887Z,0.20
2023-03-28T10:55:42.372Z,0.20
2023-03-28T10:58:13.494Z,0.10
2023-03-28T11:00:44.279Z,0.10
2023-03-28T11:03:17.160Z,0.10
2023-03-28T11:06:06.252Z,0.23
2023-03-28T11:08:46.331Z,0.10
2023-03-28T11:11:27.932Z,0.20
2023-03-28T11:14:04.608Z,0.20
2023-03-28T11:16:42.298Z,0.20
2023-03-28T11:19:21.892Z,0.33
2023-03-28T11:21:59.964Z,0.20
2023-03-28T11:24:32.361Z,0.10
2023-03-28T11:27:15.481Z,0.30
2023-03-28T11:29:49.432Z,0.30
2023-03-28T11:32:22.439Z,0.20
2023-03-28T11:34:58.769Z,0.20
2023-03-28T11:37:31.186Z,0.33
2023-03-28T11:40:01.267Z,0.20
2023-03-28T11:42:37.678Z,0.30
2023-03-28T11:45:10.805Z,0.37
2023-03-28T11:47:44.897Z,0.30
2023-03-28T11:50:19.259Z,0.40
2023-03-28T11:52:53.196Z,0.33
2023-03-28T11:55:24.412Z,0.20
2023-03-28T11:57:56.908Z,0.20
2023-03-28T12:00:33.837Z,0.20
2023-03-28T12:03:11.435Z,0.20
2023-03-28T12:05:42.780Z,0.20
2023-03-28T12:08:18.000Z,0.37
2023-03-28T12:10:48.373Z,0.10
2023-03-28T12:13:19.376Z,0.20
2023-03-28T12:15:50.538Z,0.40
2023-03-28T12:18:27.800Z,0.07
2023-03-28T12:21:02.243Z,0.33
2023-03-28T12:23:41.948Z,0.20
2023-03-28T12:26:18.410Z,0.10
2023-03-28T12:28:51.133Z,0.20
2023-03-28T12:31:24.510Z,0.20
2023-03-28T12:33:59.043Z,0.40
2023-03-28T12:36:34.899Z,0.10
2023-03-28T12:39:10.472Z,0.20
2023-03-28T12:41:42.089Z,0.23
2023-03-28T12:44:15.296Z,0.20
2023-03-28T12:46:47.206Z,0.27
2023-03-28T12:49:20.563Z,0.30
2023-03-28T12:51:52.320Z,0.20
2023-03-28T12:54:29.682Z,0.30
2023-03-28T12:57:03.145Z,0.27
2023-03-28T12:59:46.683Z,0.30
2023-03-28T13:02:16.691Z,0.30
2023-03-28T13:04:56.759Z,0.37
2023-03-28T13:07:30.512Z,0.30
2023-03-28T13:10:07.091Z,0.43
2023-03-28T13:12:40.587Z,0.40
2023-03-28T13:15:26.981Z,0.30
2023-03-28T13:18:10.947Z,0.30
2023-03-28T13:20:47.403Z,0.27
2023-03-28T13:23:18.324Z,0.30
2023-03-28T13:25:55.406Z,0.50
2023-03-28T13:28:31.599Z,0.30
2023-03-28T13:31:09.133Z,0.57
2023-03-28T13:33:40.098Z,0.43
2023-03-28T13:36:20.847Z,0.50
2023-03-28T13:38:52.144Z,0.60
2023-03-28T13:41:39.842Z,0.50
2023-03-28T13:44:14.105Z,0.50
2023-03-28T13:46:45.656Z,0.47
2023-03-28T13:49:19.082Z,0.43
2023-03-28T13:51:51.075Z,0.57
2023-03-28T13:54:21.450Z,0.97
2023-03-28T13:56:53.550Z,0.40
2023-03-28T13:59:26.314Z,0.50
2023-03-28T14:01:59.379Z,0.40
2023-03-28T14:04:29.114Z,0.33
2023-03-28T14:06:58.973Z,0.30
2023-03-28T14:09:34.344Z,0.30
2023-03-28T14:12:06.024Z,0.40
2023-03-28T14:14:37.372Z,0.23
2023-03-28T14:17:07.915Z,0.40
2023-03-28T14:19:40.555Z,0.40
2023-03-28T14:22:10.463Z,0.50
2023-03-28T14:24:40.064Z,0.40
2023-03-28T14:27:14.085Z,0.30
2023-03-28T14:29:59.241Z,0.40
2023-03-28T14:32:32.374Z,0.47
2023-03-28T14:35:18.732Z,0.40
2023-03-28T14:37:52.249Z,0.47
2023-03-28T14:40:23.808Z,0.47
2023-03-28T14:42:56.968Z,0.50
2023-03-28T14:45:28.699Z,0.27
2023-03-28T14:47:59.997Z,0.30
2023-03-28T14:50:34.117Z,0.67
2023-03-28T14:53:06.436Z,0.50
2023-03-28T14:55:38.075Z,0.40
2023-03-28T14:58:13.774Z,0.30
2023-03-28T15:00:46.793Z,0.40
2023-03-28T15:03:18.788Z,0.30
2023-03-28T15:05:51.905Z,0.37
2023-03-28T15:08:25.181Z,0.50
2023-03-28T15:10:55.217Z,0.30
2023-03-28T15:13:28.229Z,0.40
2023-03-28T15:15:58.286Z,0.30
2023-03-28T15:18:30.221Z,0.70
2023-03-28T15:21:01.452Z,0.50
2023-03-28T15:23:31.616Z,0.60
2023-03-28T15:26:03.191Z,0.40
2023-03-28T15:28:33.448Z,0.30
2023-03-28T15:31:03.096Z,0.20
2023-03-28T15:33:33.863Z,0.23
2023-03-28T15:36:09.894Z,0.20
2023-03-28T15:38:40.224Z,0.40
2023-03-28T15:41:24.164Z,0.30
2023-03-28T15:44:04.364Z,0.30
2023-03-28T15:46:37.483Z,0.33
2023-03-28T15:49:07.098Z,0.30
2023-03-28T15:51:39.827Z,0.30
2023-03-28T15:54:12.503Z,0.30
2023-03-28T15:56:47.310Z,0.20
2023-03-28T15:59:22.935Z,0.20
2023-03-28T16:01:52.126Z,0.23
2023-03-28T16:04:25.082Z,0.33
2023-03-28T16:06:59.676Z,0.30
2023-03-28T16:09:31.098Z,0.33
2023-03-28T16:12:01.997Z,0.43
2023-03-28T16:14:36.137Z,0.40
2023-03-28T16:17:09.130Z,0.40
2023-03-28T16:19:39.552Z,0.40
2023-03-28T16:22:10.481Z,0.30
2023-03-28T16:24:40.411Z,0.50
2023-03-28T16:27:14.493Z,0.20
2023-03-28T16:29:45.676Z,0.30
2023-03-28T16:32:17.626Z,0.20
2023-03-28T16:34:48.427Z,0.30
2023-03-28T16:37:17.892Z,0.40
2023-03-28T16:39:48.984Z,0.30
2023-03-28T16:42:21.245Z,0.40
2023-03-28T16:44:51.996Z,0.43
2023-03-28T16:47:23.126Z,0.40
2023-03-28T16:49:53.008Z,0.50
2023-03-28T16:52:22.065Z,0.40
2023-03-28T16:54:51.592Z,0.30
2023-03-28T16:57:21.139Z,0.30
2023-03-28T16:59:54.030Z,0.40
2023-03-28T17:02:24.647Z,0.40
2023-03-28T17:04:53.673Z,0.50
2023-03-28T17:07:24.262Z,0.20
2023-03-28T17:09:54.045Z,0.40
2023-03-28T17:12:24.743Z,0.30
2023-03-28T17:14:56.530Z,0.30
2023-03-28T17:17:25.852Z,0.27
2023-03-28T17:19:55.242Z,0.40
2023-03-28T17:22:27.458Z,0.40
2023-03-28T17:24:57.395Z,0.30
2023-03-28T17:27:26.631Z,0.37
2023-03-28T17:29:59.356Z,0.30
2023-03-28T17:32:28.161Z,0.63
2023-03-28T17:34:57.184Z,0.40
2023-03-28T17:37:28.260Z,0.27
2023-03-28T17:39:58.613Z,0.20
2023-03-28T17:42:28.996Z,0.40
2023-03-28T17:45:00.282Z,0.40
2023-03-28T17:47:31.506Z,0.57
2023-03-28T17:50:02.875Z,0.40
2023-03-28T17:52:33.087Z,0.50
2023-03-28T17:55:02.452Z,0.50
2023-03-28T17:57:33.204Z,0.47
2023-03-28T18:00:05.676Z,0.40
2023-03-28T18:02:35.571Z,0.30
2023-03-28T18:05:06.677Z,0.60
2023-03-28T18:07:37.089Z,0.50
2023-03-28T18:10:08.812Z,0.30
2023-03-28T18:12:38.932Z,0.47
2023-03-28T18:15:10.561Z,0.53
2023-03-28T18:17:39.769Z,0.53
2023-03-28T18:20:10.884Z,0.40
2023-03-28T18:22:39.852Z,0.67
2023-03-28T18:25:09.965Z,0.70
2023-03-28T18:27:39.264Z,0.60
2023-03-28T18:30:12.088Z,0.67
2023-03-28T18:32:41.668Z,0.97
2023-03-28T18:35:13.778Z,1.60
2023-03-28T18:37:43.635Z,1.00
2023-03-28T18:40:14.683Z,0.70
2023-03-28T18:42:43.278Z,0.60
2023-03-28T18:45:14.208Z,0.60
2023-03-28T18:47:44.198Z,0.90
2023-03-28T18:50:12.783Z,0.60
2023-03-28T18:52:41.794Z,0.77
2023-03-28T18:55:12.262Z,0.50
2023-03-28T18:57:41.070Z,0.73
2023-03-28T19:00:15.508Z,0.63
2023-03-28T19:02:47.070Z,0.67
2023-03-28T19:05:23.833Z,0.50
2023-03-28T19:07:53.134Z,0.40
2023-03-28T19:10:23.062Z,0.50
2023-03-28T19:12:54.509Z,0.70
2023-03-28T19:15:24.261Z,0.63
2023-03-28T19:17:57.418Z,0.60
2023-03-28T19:20:26.271Z,0.73
2023-03-28T19:22:57.585Z,0.87
2023-03-28T19:25:28.240Z,0.50
2023-03-28T19:27:58.474Z,0.70
2023-03-28T19:30:31.381Z,0.63
2023-03-28T19:33:06.354Z,0.77
2023-03-28T19:35:36.301Z,0.60
2023-03-28T19:38:04.890Z,0.80
2023-03-28T19:40:34.147Z,0.77
2023-03-28T19:43:03.152Z,0.83
2023-03-28T19:45:34.530Z,0.50
2023-03-28T19:48:05.453Z,0.43
2023-03-28T19:50:36.984Z,0.40
2023-03-28T19:53:07.983Z,0.60
2023-03-28T19:55:37.804Z,0.40
2023-03-28T19:58:07.773Z,0.60
2023-03-28T20:00:38.589Z,0.30
2023-03-28T20:03:13.203Z,0.47
2023-03-28T20:05:45.335Z,0.33
2023-03-28T20:08:16.705Z,0.30
2023-03-28T20:10:48.579Z,0.60
2023-03-28T20:13:19.381Z,0.50
2023-03-28T20:15:49.301Z,0.70
2023-03-28T20:18:23.088Z,0.57
2023-03-28T20:20:54.445Z,0.60
2023-03-28T20:23:25.296Z,0.50
2023-03-28T20:25:55.908Z,0.50
2023-03-28T20:28:27.554Z,0.90
2023-03-28T20:30:58.027Z,0.70
2023-03-28T20:33:31.800Z,0.60
2023-03-28T20:36:00.718Z,0.50
2023-03-28T20:38:31.003Z,0.53
2023-03-28T20:41:02.446Z,0.70
2023-03-28T20:43:37.432Z,0.50
2023-03-28T20:46:06.820Z,0.50
2023-03-28T20:48:38.788Z,0.60
2023-03-28T20:51:14.996Z,0.40
2023-03-28T20:53:45.846Z,0.60
2023-03-28T20:56:16.756Z,0.60
2023-03-28T20:58:45.538Z,0.93
2023-03-28T21:01:20.532Z,0.97
2023-03-28T21:03:53.743Z,0.60
2023-03-28T21:06:26.931Z,0.50
2023-03-28T21:08:58.360Z,0.33
2023-03-28T21:11:28.067Z,0.50
2023-03-28T21:14:00.445Z,0.57
2023-03-28T21:16:32.931Z,0.53
2023-03-28T21:19:06.232Z,0.60
2023-03-28T21:21:35.281Z,0.53
2023-03-28T21:24:06.008Z,0.43
2023-03-28T21:26:37.445Z,0.70
2023-03-28T21:29:06.482Z,0.60
2023-03-28T21:31:37.345Z,0.83
2023-03-28T21:34:07.618Z,0.50
2023-03-28T21:36:38.487Z,0.80
2023-03-28T21:39:10.762Z,0.60
2023-03-28T21:41:43.265Z,0.70
2023-03-28T21:44:14.436Z,0.37
2023-03-28T21:46:44.904Z,0.73
2023-03-28T21:49:15.897Z,0.60
2023-03-28T21:51:44.811Z,0.60
2023-03-28T21:54:13.952Z,0.87
2023-03-28T21:56:45.309Z,0.77
2023-03-28T21:59:14.308Z,0.67
2023-03-28T22:01:43.379Z,0.60
2023-03-28T22:04:14.989Z,0.70
2023-03-28T22:06:46.979Z,0.77
2023-03-28T22:09:22.206Z,0.70
2023-03-28T22:11:51.863Z,0.90
2023-03-28T22:14:21.044Z,0.70
2023-03-28T22:16:52.479Z,0.60
2023-03-28T22:19:21.552Z,0.70
2023-03-28T22:21:54.782Z,0.80
2023-03-28T22:24:24.773Z,0.80
2023-03-28T22:26:53.251Z,0.80
2023-03-28T22:29:23.136Z,0.90
2023-03-28T22:31:53.367Z,0.93
2023-03-28T22:34:24.388Z,0.90
2023-03-28T22:36:55.001Z,0.60
2023-03-28T22:39:25.209Z,0.90
2023-03-28T22:41:55.400Z,0.80
2023-03-28T22:44:27.358Z,0.60
2023-03-28T22:47:02.939Z,0.83
2023-03-28T22:49:35.260Z,0.60
2023-03-28T22:52:08.161Z,0.70
2023-03-28T22:54:38.240Z,0.60
2023-03-28T22:57:08.154Z,0.73
2023-03-28T22:59:40.139Z,0.90
2023-03-28T23:02:09.673Z,0.87
2023-03-28T23:04:38.569Z,0.80
2023-03-28T23:07:10.522Z,0.73
2023-03-28T23:09:41.760Z,1.00
2023-03-28T23:12:10.856Z,0.90
2023-03-28T23:14:41.751Z,1.00
2023-03-28T23:17:11.460Z,0.77
2023-03-28T23:19:40.775Z,1.00
2023-03-28T23:22:15.665Z,1.00
2023-03-28T23:24:46.810Z,0.90
2023-03-28T23:27:16.691Z,0.90
2023-03-28T23:29:45.917Z,1.00
2023-03-28T23:32:15.053Z,1.00
2023-03-28T23:34:44.003Z,1.20
2023-03-28T23:37:16.886Z,1.07
2023-03-28T23:39:48.135Z,1.17
2023-03-28T23:42:18.051Z,1.07
2023-03-28T23:44:47.129Z,1.20
2023-03-28T23:47:16.596Z,1.27
2023-03-28T23:49:47.033Z,1.07
2023-03-28T23:52:17.739Z,1.20
2023-03-28T23:54:48.174Z,1.40
2023-03-28T23:57:18.761Z,1.53
2023-03-28T23:59:49.638Z,1.13
